sensor_id;sensor_type;location;lat;lon;timestamp;P1;durP1;ratioP1;P2;durP2;ratioP2
4377;SDS011;2203;53.686;9.994;2023-02-28T00:00:01;18.40;;;4.17;;
4377;SDS011;2203;53.686;9.994;2023-02-28T00:02:35;7.33;;;3.10;;
4377;SDS011;2203;53.686;9.994;2023-02-28T00:05:01;5.80;;;3.10;;
4377;SDS011;2203;53.686;9.994;2023-02-28T00:07:28;10.50;;;3.73;;
4377;SDS011;2203;53.686;9.994;2023-02-28T00:09:54;13.00;;;3.90;;
4377;SDS011;2203;53.686;9.994;2023-02-28T00:12:19;8.40;;;2.80;;
4377;SDS011;2203;53.686;9.994;2023-02-28T00:14:45;10.10;;;3.40;;
4377;SDS011;2203;53.686;9.994;2023-02-28T00:17:10;10.23;;;3.73;;
4377;SDS011;2203;53.686;9.994;2023-02-28T00:19:35;11.97;;;3.87;;
4377;SDS011;2203;53.686;9.994;2023-02-28T00:22:01;7.87;;;2.90;;
4377;SDS011;2203;53.686;9.994;2023-02-28T00:24:26;9.90;;;3.63;;
4377;SDS011;2203;53.686;9.994;2023-02-28T00:26:52;13.73;;;3.93;;
4377;SDS011;2203;53.686;9.994;2023-02-28T00:29:17;9.53;;;4.00;;
4377;SDS011;2203;53.686;9.994;2023-02-28T00:31:42;11.53;;;3.73;;
4377;SDS011;2203;53.686;9.994;2023-02-28T00:34:08;10.20;;;4.87;;
4377;SDS011;2203;53.686;9.994;2023-02-28T00:36:33;10.00;;;3.57;;
4377;SDS011;2203;53.686;9.994;2023-02-28T00:38:58;10.43;;;4.23;;
4377;SDS011;2203;53.686;9.994;2023-02-28T00:41:24;14.07;;;4.13;;
4377;SDS011;2203;53.686;9.994;2023-02-28T00:43:49;12.23;;;4.33;;
4377;SDS011;2203;53.686;9.994;2023-02-28T00:46:15;6.07;;;3.40;;
4377;SDS011;2203;53.686;9.994;2023-02-28T00:48:40;8.47;;;3.40;;
4377;SDS011;2203;53.686;9.994;2023-02-28T00:51:06;9.67;;;3.57;;
4377;SDS011;2203;53.686;9.994;2023-02-28T00:53:31;16.13;;;4.10;;
4377;SDS011;2203;53.686;9.994;2023-02-28T00:55:57;13.10;;;3.70;;
4377;SDS011;2203;53.686;9.994;2023-02-28T00:58:23;9.13;;;4.07;;
4377;SDS011;2203;53.686;9.994;2023-02-28T01:00:49;12.60;;;4.10;;
4377;SDS011;2203;53.686;9.994;2023-02-28T01:03:18;12.70;;;4.20;;
4377;SDS011;2203;53.686;9.994;2023-02-28T01:05:44;9.70;;;3.87;;
4377;SDS011;2203;53.686;9.994;2023-02-28T01:08:10;9.00;;;3.93;;
4377;SDS011;2203;53.686;9.994;2023-02-28T01:10:36;12.53;;;3.50;;
4377;SDS011;2203;53.686;9.994;2023-02-28T01:13:01;8.40;;;3.70;;
4377;SDS011;2203;53.686;9.994;2023-02-28T01:15:27;11.20;;;4.33;;
4377;SDS011;2203;53.686;9.994;2023-02-28T01:17:53;9.43;;;3.67;;
4377;SDS011;2203;53.686;9.994;2023-02-28T01:20:18;7.63;;;3.30;;
4377;SDS011;2203;53.686;9.994;2023-02-28T01:22:43;12.27;;;3.50;;
4377;SDS011;2203;53.686;9.994;2023-02-28T01:25:09;9.40;;;3.30;;
4377;SDS011;2203;53.686;9.994;2023-02-28T01:27:34;13.83;;;4.07;;
4377;SDS011;2203;53.686;9.994;2023-02-28T01:30:00;10.23;;;3.80;;
4377;SDS011;2203;53.686;9.994;2023-02-28T01:32:26;11.03;;;3.47;;
4377;SDS011;2203;53.686;9.994;2023-02-28T01:34:52;13.53;;;3.50;;
4377;SDS011;2203;53.686;9.994;2023-02-28T01:37:17;15.67;;;4.37;;
4377;SDS011;2203;53.686;9.994;2023-02-28T01:39:42;8.60;;;2.90;;
4377;SDS011;2203;53.686;9.994;2023-02-28T01:42:10;5.83;;;3.30;;
4377;SDS011;2203;53.686;9.994;2023-02-28T01:44:55;11.53;;;3.40;;
4377;SDS011;2203;53.686;9.994;2023-02-28T01:47:24;8.80;;;3.33;;
4377;SDS011;2203;53.686;9.994;2023-02-28T01:49:52;8.70;;;3.47;;
4377;SDS011;2203;53.686;9.994;2023-02-28T01:52:17;10.47;;;3.80;;
4377;SDS011;2203;53.686;9.994;2023-02-28T01:54:47;13.13;;;3.40;;
4377;SDS011;2203;53.686;9.994;2023-02-28T01:57:20;7.07;;;3.03;;
4377;SDS011;2203;53.686;9.994;2023-02-28T01:59:57;9.27;;;3.23;;
4377;SDS011;2203;53.686;9.994;2023-02-28T02:02:24;12.53;;;3.87;;
4377;SDS011;2203;53.686;9.994;2023-02-28T02:04:51;9.57;;;3.47;;
4377;SDS011;2203;53.686;9.994;2023-02-28T02:07:19;9.53;;;3.60;;
4377;SDS011;2203;53.686;9.994;2023-02-28T02:09:45;9.90;;;3.10;;
4377;SDS011;2203;53.686;9.994;2023-02-28T02:12:25;15.80;;;4.70;;
4377;SDS011;2203;53.686;9.994;2023-02-28T02:15:04;6.20;;;3.13;;
4377;SDS011;2203;53.686;9.994;2023-02-28T02:17:38;15.33;;;4.27;;
4377;SDS011;2203;53.686;9.994;2023-02-28T02:32:04;7.57;;;3.57;;
4377;SDS011;2203;53.686;9.994;2023-02-28T02:48:11;6.33;;;3.30;;
4377;SDS011;2203;53.686;9.994;2023-02-28T02:51:00;8.20;;;3.00;;
4377;SDS011;2203;53.686;9.994;2023-02-28T02:53:35;12.73;;;3.83;;
4377;SDS011;2203;53.686;9.994;2023-02-28T02:56:14;15.63;;;3.57;;
4377;SDS011;2203;53.686;9.994;2023-02-28T02:58:42;7.63;;;2.90;;
4377;SDS011;2203;53.686;9.994;2023-02-28T03:01:09;7.80;;;3.30;;
4377;SDS011;2203;53.686;9.994;2023-02-28T03:03:36;10.57;;;3.57;;
4377;SDS011;2203;53.686;9.994;2023-02-28T03:06:02;7.80;;;2.83;;
4377;SDS011;2203;53.686;9.994;2023-02-28T03:08:29;5.37;;;2.63;;
4377;SDS011;2203;53.686;9.994;2023-02-28T03:11:00;11.07;;;3.10;;
4377;SDS011;2203;53.686;9.994;2023-02-28T03:13:33;5.47;;;3.30;;
4377;SDS011;2203;53.686;9.994;2023-02-28T03:18:56;6.43;;;3.20;;
4377;SDS011;2203;53.686;9.994;2023-02-28T03:27:06;12.80;;;3.70;;
4377;SDS011;2203;53.686;9.994;2023-02-28T03:29:38;16.03;;;3.60;;
4377;SDS011;2203;53.686;9.994;2023-02-28T03:32:16;10.90;;;3.40;;
4377;SDS011;2203;53.686;9.994;2023-02-28T03:34:56;14.97;;;3.97;;
4377;SDS011;2203;53.686;9.994;2023-02-28T03:37:24;12.77;;;4.20;;
4377;SDS011;2203;53.686;9.994;2023-02-28T03:39:56;10.80;;;3.60;;
4377;SDS011;2203;53.686;9.994;2023-02-28T03:42:27;7.63;;;3.87;;
4377;SDS011;2203;53.686;9.994;2023-02-28T03:44:54;8.90;;;4.43;;
4377;SDS011;2203;53.686;9.994;2023-02-28T03:47:30;12.77;;;4.47;;
4377;SDS011;2203;53.686;9.994;2023-02-28T03:50:05;9.50;;;3.87;;
4377;SDS011;2203;53.686;9.994;2023-02-28T03:52:34;10.20;;;4.13;;
4377;SDS011;2203;53.686;9.994;2023-02-28T03:55:02;9.33;;;3.53;;
4377;SDS011;2203;53.686;9.994;2023-02-28T03:57:34;11.33;;;3.97;;
4377;SDS011;2203;53.686;9.994;2023-02-28T04:00:07;15.87;;;4.83;;
4377;SDS011;2203;53.686;9.994;2023-02-28T04:02:46;12.53;;;4.30;;
4377;SDS011;2203;53.686;9.994;2023-02-28T04:05:17;11.80;;;4.40;;
4377;SDS011;2203;53.686;9.994;2023-02-28T04:07:43;13.00;;;4.03;;
4377;SDS011;2203;53.686;9.994;2023-02-28T04:10:09;9.27;;;3.43;;
4377;SDS011;2203;53.686;9.994;2023-02-28T04:12:35;18.47;;;3.97;;
4377;SDS011;2203;53.686;9.994;2023-02-28T04:15:01;19.10;;;4.40;;
4377;SDS011;2203;53.686;9.994;2023-02-28T04:17:26;7.57;;;3.47;;
4377;SDS011;2203;53.686;9.994;2023-02-28T04:19:52;13.70;;;3.50;;
4377;SDS011;2203;53.686;9.994;2023-02-28T04:22:18;9.53;;;3.60;;
4377;SDS011;2203;53.686;9.994;2023-02-28T04:24:44;8.40;;;4.20;;
4377;SDS011;2203;53.686;9.994;2023-02-28T04:27:09;8.60;;;3.97;;
4377;SDS011;2203;53.686;9.994;2023-02-28T04:29:35;11.83;;;3.73;;
4377;SDS011;2203;53.686;9.994;2023-02-28T04:32:01;10.07;;;4.17;;
4377;SDS011;2203;53.686;9.994;2023-02-28T04:34:27;11.87;;;4.40;;
4377;SDS011;2203;53.686;9.994;2023-02-28T04:36:54;12.83;;;4.23;;
4377;SDS011;2203;53.686;9.994;2023-02-28T04:39:20;14.80;;;4.40;;
4377;SDS011;2203;53.686;9.994;2023-02-28T04:41:47;16.97;;;3.73;;
4377;SDS011;2203;53.686;9.994;2023-02-28T04:44:12;7.30;;;3.47;;
4377;SDS011;2203;53.686;9.994;2023-02-28T04:46:38;15.73;;;4.20;;
4377;SDS011;2203;53.686;9.994;2023-02-28T04:49:03;7.43;;;3.83;;
4377;SDS011;2203;53.686;9.994;2023-02-28T04:51:28;9.30;;;4.00;;
4377;SDS011;2203;53.686;9.994;2023-02-28T04:53:54;10.93;;;3.80;;
4377;SDS011;2203;53.686;9.994;2023-02-28T04:56:20;8.03;;;4.23;;
4377;SDS011;2203;53.686;9.994;2023-02-28T04:58:45;11.17;;;3.70;;
4377;SDS011;2203;53.686;9.994;2023-02-28T05:01:18;10.43;;;4.20;;
4377;SDS011;2203;53.686;9.994;2023-02-28T05:03:46;6.07;;;3.53;;
4377;SDS011;2203;53.686;9.994;2023-02-28T05:06:12;8.47;;;3.50;;
4377;SDS011;2203;53.686;9.994;2023-02-28T05:08:38;7.90;;;4.17;;
4377;SDS011;2203;53.686;9.994;2023-02-28T05:11:05;7.33;;;3.80;;
4377;SDS011;2203;53.686;9.994;2023-02-28T05:13:32;10.00;;;3.53;;
4377;SDS011;2203;53.686;9.994;2023-02-28T05:15:57;14.83;;;4.57;;
4377;SDS011;2203;53.686;9.994;2023-02-28T05:18:22;9.60;;;4.47;;
4377;SDS011;2203;53.686;9.994;2023-02-28T05:20:48;9.57;;;3.97;;
4377;SDS011;2203;53.686;9.994;2023-02-28T05:23:13;11.70;;;5.03;;
4377;SDS011;2203;53.686;9.994;2023-02-28T05:25:39;7.37;;;3.90;;
4377;SDS011;2203;53.686;9.994;2023-02-28T05:28:05;11.50;;;4.10;;
4377;SDS011;2203;53.686;9.994;2023-02-28T05:30:31;9.97;;;4.20;;
4377;SDS011;2203;53.686;9.994;2023-02-28T05:32:57;14.90;;;4.27;;
4377;SDS011;2203;53.686;9.994;2023-02-28T05:35:23;14.63;;;4.80;;
4377;SDS011;2203;53.686;9.994;2023-02-28T05:37:48;9.10;;;3.80;;
4377;SDS011;2203;53.686;9.994;2023-02-28T05:40:14;17.53;;;4.50;;
4377;SDS011;2203;53.686;9.994;2023-02-28T05:42:40;11.90;;;3.93;;
4377;SDS011;2203;53.686;9.994;2023-02-28T05:45:06;17.93;;;4.53;;
4377;SDS011;2203;53.686;9.994;2023-02-28T05:47:32;8.20;;;4.27;;
4377;SDS011;2203;53.686;9.994;2023-02-28T05:49:58;7.07;;;4.10;;
4377;SDS011;2203;53.686;9.994;2023-02-28T05:52:23;15.90;;;4.10;;
4377;SDS011;2203;53.686;9.994;2023-02-28T05:54:48;17.80;;;4.70;;
4377;SDS011;2203;53.686;9.994;2023-02-28T05:57:14;13.63;;;4.40;;
4377;SDS011;2203;53.686;9.994;2023-02-28T05:59:40;16.20;;;4.90;;
4377;SDS011;2203;53.686;9.994;2023-02-28T06:02:06;13.60;;;4.33;;
4377;SDS011;2203;53.686;9.994;2023-02-28T06:04:39;12.13;;;4.30;;
4377;SDS011;2203;53.686;9.994;2023-02-28T06:07:05;7.43;;;3.83;;
4377;SDS011;2203;53.686;9.994;2023-02-28T06:09:31;18.63;;;5.10;;
4377;SDS011;2203;53.686;9.994;2023-02-28T06:12:00;12.70;;;4.50;;
4377;SDS011;2203;53.686;9.994;2023-02-28T06:14:28;8.00;;;4.20;;
4377;SDS011;2203;53.686;9.994;2023-02-28T06:16:54;11.83;;;4.53;;
4377;SDS011;2203;53.686;9.994;2023-02-28T06:19:19;10.80;;;4.37;;
4377;SDS011;2203;53.686;9.994;2023-02-28T06:21:45;14.00;;;4.10;;
4377;SDS011;2203;53.686;9.994;2023-02-28T06:24:14;14.87;;;4.70;;
4377;SDS011;2203;53.686;9.994;2023-02-28T06:26:39;12.70;;;4.73;;
4377;SDS011;2203;53.686;9.994;2023-02-28T06:29:05;9.83;;;4.17;;
4377;SDS011;2203;53.686;9.994;2023-02-28T06:31:30;13.50;;;4.77;;
4377;SDS011;2203;53.686;9.994;2023-02-28T06:33:55;13.77;;;4.67;;
4377;SDS011;2203;53.686;9.994;2023-02-28T06:36:21;12.70;;;5.07;;
4377;SDS011;2203;53.686;9.994;2023-02-28T06:38:47;10.90;;;4.87;;
4377;SDS011;2203;53.686;9.994;2023-02-28T06:41:16;16.57;;;5.00;;
4377;SDS011;2203;53.686;9.994;2023-02-28T06:43:42;13.27;;;5.23;;
4377;SDS011;2203;53.686;9.994;2023-02-28T06:46:09;9.50;;;4.67;;
4377;SDS011;2203;53.686;9.994;2023-02-28T06:48:36;10.97;;;5.40;;
4377;SDS011;2203;53.686;9.994;2023-02-28T06:51:08;13.97;;;4.53;;
4377;SDS011;2203;53.686;9.994;2023-02-28T06:53:35;12.47;;;4.97;;
4377;SDS011;2203;53.686;9.994;2023-02-28T06:56:06;14.57;;;5.47;;
4377;SDS011;2203;53.686;9.994;2023-02-28T06:58:32;15.13;;;6.10;;
4377;SDS011;2203;53.686;9.994;2023-02-28T07:00:58;12.40;;;4.60;;
4377;SDS011;2203;53.686;9.994;2023-02-28T07:03:23;9.13;;;4.47;;
4377;SDS011;2203;53.686;9.994;2023-02-28T07:05:49;12.20;;;5.43;;
4377;SDS011;2203;53.686;9.994;2023-02-28T07:08:14;10.03;;;4.60;;
4377;SDS011;2203;53.686;9.994;2023-02-28T07:10:40;16.50;;;4.90;;
4377;SDS011;2203;53.686;9.994;2023-02-28T07:13:06;11.13;;;5.60;;
4377;SDS011;2203;53.686;9.994;2023-02-28T07:15:32;14.13;;;5.40;;
4377;SDS011;2203;53.686;9.994;2023-02-28T07:17:58;15.40;;;5.40;;
4377;SDS011;2203;53.686;9.994;2023-02-28T07:20:23;17.37;;;5.27;;
4377;SDS011;2203;53.686;9.994;2023-02-28T07:22:49;13.30;;;5.13;;
4377;SDS011;2203;53.686;9.994;2023-02-28T07:25:21;25.93;;;6.17;;
4377;SDS011;2203;53.686;9.994;2023-02-28T07:27:48;17.27;;;5.87;;
4377;SDS011;2203;53.686;9.994;2023-02-28T07:30:13;17.60;;;6.70;;
4377;SDS011;2203;53.686;9.994;2023-02-28T07:32:39;11.83;;;4.40;;
4377;SDS011;2203;53.686;9.994;2023-02-28T07:35:04;20.93;;;5.33;;
4377;SDS011;2203;53.686;9.994;2023-02-28T07:37:30;15.90;;;5.80;;
4377;SDS011;2203;53.686;9.994;2023-02-28T07:40:02;15.40;;;4.80;;
4377;SDS011;2203;53.686;9.994;2023-02-28T07:42:33;15.63;;;5.80;;
4377;SDS011;2203;53.686;9.994;2023-02-28T07:44:59;26.23;;;7.07;;
4377;SDS011;2203;53.686;9.994;2023-02-28T07:47:24;18.60;;;6.47;;
4377;SDS011;2203;53.686;9.994;2023-02-28T07:49:50;10.40;;;4.40;;
4377;SDS011;2203;53.686;9.994;2023-02-28T07:52:15;14.10;;;5.67;;
4377;SDS011;2203;53.686;9.994;2023-02-28T07:54:41;14.50;;;5.47;;
4377;SDS011;2203;53.686;9.994;2023-02-28T07:57:06;8.90;;;4.87;;
4377;SDS011;2203;53.686;9.994;2023-02-28T07:59:32;14.70;;;5.20;;
4377;SDS011;2203;53.686;9.994;2023-02-28T08:01:58;24.40;;;6.10;;
4377;SDS011;2203;53.686;9.994;2023-02-28T08:04:24;27.70;;;5.43;;
4377;SDS011;2203;53.686;9.994;2023-02-28T08:06:49;14.20;;;4.70;;
4377;SDS011;2203;53.686;9.994;2023-02-28T08:09:17;12.17;;;4.67;;
4377;SDS011;2203;53.686;9.994;2023-02-28T08:11:42;11.33;;;4.30;;
4377;SDS011;2203;53.686;9.994;2023-02-28T08:14:07;15.47;;;4.60;;
4377;SDS011;2203;53.686;9.994;2023-02-28T08:16:33;10.93;;;4.53;;
4377;SDS011;2203;53.686;9.994;2023-02-28T08:18:58;12.50;;;4.27;;
4377;SDS011;2203;53.686;9.994;2023-02-28T08:21:24;10.03;;;4.27;;
4377;SDS011;2203;53.686;9.994;2023-02-28T08:23:50;11.10;;;5.87;;
4377;SDS011;2203;53.686;9.994;2023-02-28T08:26:19;10.60;;;4.50;;
4377;SDS011;2203;53.686;9.994;2023-02-28T08:28:45;11.50;;;4.10;;
4377;SDS011;2203;53.686;9.994;2023-02-28T08:31:11;9.17;;;3.80;;
4377;SDS011;2203;53.686;9.994;2023-02-28T08:33:38;13.43;;;4.47;;
4377;SDS011;2203;53.686;9.994;2023-02-28T08:36:04;13.90;;;4.13;;
4377;SDS011;2203;53.686;9.994;2023-02-28T08:38:31;9.23;;;4.23;;
4377;SDS011;2203;53.686;9.994;2023-02-28T08:40:57;11.30;;;4.70;;
4377;SDS011;2203;53.686;9.994;2023-02-28T08:43:23;9.40;;;3.40;;
4377;SDS011;2203;53.686;9.994;2023-02-28T08:45:51;19.70;;;3.80;;
4377;SDS011;2203;53.686;9.994;2023-02-28T08:48:25;15.40;;;3.20;;
4377;SDS011;2203;53.686;9.994;2023-02-28T08:50:56;9.03;;;2.97;;
4377;SDS011;2203;53.686;9.994;2023-02-28T08:53:23;14.00;;;3.63;;
4377;SDS011;2203;53.686;9.994;2023-02-28T08:55:55;7.97;;;3.50;;
4377;SDS011;2203;53.686;9.994;2023-02-28T08:58:21;14.30;;;3.43;;
4377;SDS011;2203;53.686;9.994;2023-02-28T09:00:47;13.80;;;3.70;;
4377;SDS011;2203;53.686;9.994;2023-02-28T09:03:12;9.37;;;3.50;;
4377;SDS011;2203;53.686;9.994;2023-02-28T09:05:37;10.03;;;3.67;;
4377;SDS011;2203;53.686;9.994;2023-02-28T09:08:03;13.03;;;4.10;;
4377;SDS011;2203;53.686;9.994;2023-02-28T09:10:28;20.03;;;3.33;;
4377;SDS011;2203;53.686;9.994;2023-02-28T09:12:54;14.47;;;3.23;;
4377;SDS011;2203;53.686;9.994;2023-02-28T09:15:19;4.67;;;2.20;;
4377;SDS011;2203;53.686;9.994;2023-02-28T09:17:44;3.87;;;2.57;;
4377;SDS011;2203;53.686;9.994;2023-02-28T09:20:10;9.37;;;2.93;;
4377;SDS011;2203;53.686;9.994;2023-02-28T09:22:36;7.20;;;2.90;;
4377;SDS011;2203;53.686;9.994;2023-02-28T09:25:01;7.40;;;2.83;;
4377;SDS011;2203;53.686;9.994;2023-02-28T09:27:27;10.47;;;2.70;;
4377;SDS011;2203;53.686;9.994;2023-02-28T09:29:52;13.23;;;2.33;;
4377;SDS011;2203;53.686;9.994;2023-02-28T09:32:17;10.37;;;3.00;;
4377;SDS011;2203;53.686;9.994;2023-02-28T09:34:43;8.73;;;2.37;;
4377;SDS011;2203;53.686;9.994;2023-02-28T09:37:08;6.87;;;2.30;;
4377;SDS011;2203;53.686;9.994;2023-02-28T09:39:34;6.63;;;2.13;;
4377;SDS011;2203;53.686;9.994;2023-02-28T09:41:59;7.90;;;1.50;;
4377;SDS011;2203;53.686;9.994;2023-02-28T09:44:31;3.33;;;1.47;;
4377;SDS011;2203;53.686;9.994;2023-02-28T09:47:05;3.63;;;1.37;;
4377;SDS011;2203;53.686;9.994;2023-02-28T09:49:40;3.63;;;1.77;;
4377;SDS011;2203;53.686;9.994;2023-02-28T09:52:39;6.83;;;2.00;;
4377;SDS011;2203;53.686;9.994;2023-02-28T09:55:16;3.07;;;1.73;;
4377;SDS011;2203;53.686;9.994;2023-02-28T09:57:43;3.63;;;2.03;;
4377;SDS011;2203;53.686;9.994;2023-02-28T10:00:19;8.77;;;1.87;;
4377;SDS011;2203;53.686;9.994;2023-02-28T10:05:15;4.43;;;1.90;;
4377;SDS011;2203;53.686;9.994;2023-02-28T10:10:44;4.60;;;1.87;;
4377;SDS011;2203;53.686;9.994;2023-02-28T10:13:54;6.50;;;2.10;;
4377;SDS011;2203;53.686;9.994;2023-02-28T10:16:11;12.27;;;1.87;;
4377;SDS011;2203;53.686;9.994;2023-02-28T10:19:26;6.87;;;1.97;;
4377;SDS011;2203;53.686;9.994;2023-02-28T10:21:41;6.13;;;1.70;;
4377;SDS011;2203;53.686;9.994;2023-02-28T10:26:35;2.93;;;1.80;;
4377;SDS011;2203;53.686;9.994;2023-02-28T10:29:01;7.87;;;2.00;;
4377;SDS011;2203;53.686;9.994;2023-02-28T10:31:27;4.80;;;1.83;;
4377;SDS011;2203;53.686;9.994;2023-02-28T10:33:53;6.60;;;2.00;;
4377;SDS011;2203;53.686;9.994;2023-02-28T10:36:19;4.20;;;1.43;;
4377;SDS011;2203;53.686;9.994;2023-02-28T10:38:46;4.00;;;2.23;;
4377;SDS011;2203;53.686;9.994;2023-02-28T10:43:38;3.17;;;1.47;;
4377;SDS011;2203;53.686;9.994;2023-02-28T10:48:45;3.33;;;1.73;;
4377;SDS011;2203;53.686;9.994;2023-02-28T10:51:16;4.27;;;1.90;;
4377;SDS011;2203;53.686;9.994;2023-02-28T10:53:48;7.33;;;2.03;;
4377;SDS011;2203;53.686;9.994;2023-02-28T10:56:22;2.80;;;1.50;;
4377;SDS011;2203;53.686;9.994;2023-02-28T11:01:27;5.73;;;1.53;;
4377;SDS011;2203;53.686;9.994;2023-02-28T11:04:02;6.40;;;1.90;;
4377;SDS011;2203;53.686;9.994;2023-02-28T11:08:54;7.80;;;1.67;;
4377;SDS011;2203;53.686;9.994;2023-02-28T11:11:22;5.10;;;2.10;;
4377;SDS011;2203;53.686;9.994;2023-02-28T11:13:50;3.27;;;1.60;;
4377;SDS011;2203;53.686;9.994;2023-02-28T11:16:18;4.90;;;1.60;;
4377;SDS011;2203;53.686;9.994;2023-02-28T11:21:09;3.13;;;1.80;;
4377;SDS011;2203;53.686;9.994;2023-02-28T11:23:41;3.50;;;1.87;;
4377;SDS011;2203;53.686;9.994;2023-02-28T11:26:07;8.23;;;2.27;;
4377;SDS011;2203;53.686;9.994;2023-02-28T11:28:38;4.80;;;1.50;;
4377;SDS011;2203;53.686;9.994;2023-02-28T11:38:45;7.50;;;2.00;;
4377;SDS011;2203;53.686;9.994;2023-02-28T11:47:04;4.50;;;2.10;;
4377;SDS011;2203;53.686;9.994;2023-02-28T11:49:37;3.80;;;1.40;;
4377;SDS011;2203;53.686;9.994;2023-02-28T11:58:01;4.80;;;2.00;;
4377;SDS011;2203;53.686;9.994;2023-02-28T12:00:32;2.80;;;1.40;;
4377;SDS011;2203;53.686;9.994;2023-02-28T12:11:19;3.87;;;1.70;;
4377;SDS011;2203;53.686;9.994;2023-02-28T12:27:32;2.30;;;1.73;;
4377;SDS011;2203;53.686;9.994;2023-02-28T12:30:04;2.50;;;1.33;;
4377;SDS011;2203;53.686;9.994;2023-02-28T12:32:37;3.10;;;1.43;;
4377;SDS011;2203;53.686;9.994;2023-02-28T12:35:26;4.87;;;1.80;;
4377;SDS011;2203;53.686;9.994;2023-02-28T12:38:12;3.77;;;1.57;;
4377;SDS011;2203;53.686;9.994;2023-02-28T12:43:14;10.30;;;1.50;;
4377;SDS011;2203;53.686;9.994;2023-02-28T12:48:08;5.17;;;2.00;;
4377;SDS011;2203;53.686;9.994;2023-02-28T12:50:36;10.53;;;2.30;;
4377;SDS011;2203;53.686;9.994;2023-02-28T12:53:03;5.90;;;2.63;;
4377;SDS011;2203;53.686;9.994;2023-02-28T13:09:38;2.20;;;1.63;;
4377;SDS011;2203;53.686;9.994;2023-02-28T13:12:14;2.93;;;1.40;;
4377;SDS011;2203;53.686;9.994;2023-02-28T13:14:40;2.60;;;1.40;;
4377;SDS011;2203;53.686;9.994;2023-02-28T13:19:45;9.47;;;2.10;;
4377;SDS011;2203;53.686;9.994;2023-02-28T13:24:50;2.63;;;1.67;;
4377;SDS011;2203;53.686;9.994;2023-02-28T13:27:21;1.93;;;1.30;;
4377;SDS011;2203;53.686;9.994;2023-02-28T13:29:51;2.83;;;1.57;;
4377;SDS011;2203;53.686;9.994;2023-02-28T13:32:31;8.60;;;2.03;;
4377;SDS011;2203;53.686;9.994;2023-02-28T13:39:58;2.37;;;1.70;;
4377;SDS011;2203;53.686;9.994;2023-02-28T13:47:36;2.53;;;1.63;;
4377;SDS011;2203;53.686;9.994;2023-02-28T13:50:32;3.03;;;1.43;;
4377;SDS011;2203;53.686;9.994;2023-02-28T14:07:01;2.27;;;1.47;;
4377;SDS011;2203;53.686;9.994;2023-02-28T14:09:30;4.87;;;1.90;;
4377;SDS011;2203;53.686;9.994;2023-02-28T14:11:57;5.03;;;2.37;;
4377;SDS011;2203;53.686;9.994;2023-02-28T14:17:01;3.77;;;1.80;;
4377;SDS011;2203;53.686;9.994;2023-02-28T14:19:31;7.70;;;1.70;;
4377;SDS011;2203;53.686;9.994;2023-02-28T14:22:18;3.73;;;1.60;;
4377;SDS011;2203;53.686;9.994;2023-02-28T14:30:24;2.07;;;1.23;;
4377;SDS011;2203;53.686;9.994;2023-02-28T14:38:25;5.27;;;1.80;;
4377;SDS011;2203;53.686;9.994;2023-02-28T14:40:54;5.60;;;2.10;;
4377;SDS011;2203;53.686;9.994;2023-02-28T14:43:21;4.33;;;1.50;;
4377;SDS011;2203;53.686;9.994;2023-02-28T14:45:53;2.13;;;1.33;;
4377;SDS011;2203;53.686;9.994;2023-02-28T14:48:23;4.73;;;1.70;;
4377;SDS011;2203;53.686;9.994;2023-02-28T14:50:54;4.57;;;1.73;;
4377;SDS011;2203;53.686;9.994;2023-02-28T14:53:22;3.17;;;1.83;;
4377;SDS011;2203;53.686;9.994;2023-02-28T14:55:49;2.20;;;1.30;;
4377;SDS011;2203;53.686;9.994;2023-02-28T14:58:25;5.40;;;1.30;;
4377;SDS011;2203;53.686;9.994;2023-02-28T15:00:51;2.13;;;1.40;;
4377;SDS011;2203;53.686;9.994;2023-02-28T15:06:04;5.70;;;1.50;;
4377;SDS011;2203;53.686;9.994;2023-02-28T15:08:31;10.03;;;1.47;;
4377;SDS011;2203;53.686;9.994;2023-02-28T15:13:40;3.33;;;1.47;;
4377;SDS011;2203;53.686;9.994;2023-02-28T15:19:02;2.23;;;1.57;;
4377;SDS011;2203;53.686;9.994;2023-02-28T15:21:32;3.77;;;2.07;;
4377;SDS011;2203;53.686;9.994;2023-02-28T15:24:07;3.37;;;1.60;;
4377;SDS011;2203;53.686;9.994;2023-02-28T15:26:41;3.23;;;1.50;;
4377;SDS011;2203;53.686;9.994;2023-02-28T15:29:11;3.37;;;2.00;;
4377;SDS011;2203;53.686;9.994;2023-02-28T15:31:42;5.60;;;1.80;;
4377;SDS011;2203;53.686;9.994;2023-02-28T15:34:21;2.40;;;1.53;;
4377;SDS011;2203;53.686;9.994;2023-02-28T15:36:58;2.13;;;1.40;;
4377;SDS011;2203;53.686;9.994;2023-02-28T15:39:25;6.00;;;1.73;;
4377;SDS011;2203;53.686;9.994;2023-02-28T15:42:10;4.50;;;1.70;;
4377;SDS011;2203;53.686;9.994;2023-02-28T15:44:45;7.90;;;1.60;;
4377;SDS011;2203;53.686;9.994;2023-02-28T15:47:21;2.80;;;1.63;;
4377;SDS011;2203;53.686;9.994;2023-02-28T15:49:52;2.47;;;1.53;;
4377;SDS011;2203;53.686;9.994;2023-02-28T15:55:09;7.57;;;2.30;;
4377;SDS011;2203;53.686;9.994;2023-02-28T15:57:38;1.90;;;1.43;;
4377;SDS011;2203;53.686;9.994;2023-02-28T16:00:04;10.43;;;2.00;;
4377;SDS011;2203;53.686;9.994;2023-02-28T16:02:32;3.83;;;1.83;;
4377;SDS011;2203;53.686;9.994;2023-02-28T16:07:34;7.40;;;2.10;;
4377;SDS011;2203;53.686;9.994;2023-02-28T16:10:00;11.47;;;1.87;;
4377;SDS011;2203;53.686;9.994;2023-02-28T16:12:30;5.23;;;2.27;;
4377;SDS011;2203;53.686;9.994;2023-02-28T16:14:58;4.03;;;1.90;;
4377;SDS011;2203;53.686;9.994;2023-02-28T16:17:26;1.93;;;1.63;;
4377;SDS011;2203;53.686;9.994;2023-02-28T16:19:53;5.03;;;2.03;;
4377;SDS011;2203;53.686;9.994;2023-02-28T16:22:19;2.30;;;1.80;;
4377;SDS011;2203;53.686;9.994;2023-02-28T16:24:45;3.93;;;2.73;;
4377;SDS011;2203;53.686;9.994;2023-02-28T16:27:15;2.50;;;1.27;;
4377;SDS011;2203;53.686;9.994;2023-02-28T16:29:41;4.10;;;1.70;;
4377;SDS011;2203;53.686;9.994;2023-02-28T16:32:07;6.70;;;2.03;;
4377;SDS011;2203;53.686;9.994;2023-02-28T16:34:33;5.53;;;1.77;;
4377;SDS011;2203;53.686;9.994;2023-02-28T16:36:58;5.40;;;1.93;;
4377;SDS011;2203;53.686;9.994;2023-02-28T16:39:23;3.30;;;1.73;;
4377;SDS011;2203;53.686;9.994;2023-02-28T16:41:49;2.50;;;1.80;;
4377;SDS011;2203;53.686;9.994;2023-02-28T16:44:36;6.23;;;2.30;;
4377;SDS011;2203;53.686;9.994;2023-02-28T16:47:02;3.90;;;2.23;;
4377;SDS011;2203;53.686;9.994;2023-02-28T16:49:28;8.30;;;2.70;;
4377;SDS011;2203;53.686;9.994;2023-02-28T16:51:54;7.70;;;2.23;;
4377;SDS011;2203;53.686;9.994;2023-02-28T16:54:19;2.50;;;1.70;;
4377;SDS011;2203;53.686;9.994;2023-02-28T16:56:45;4.93;;;1.60;;
4377;SDS011;2203;53.686;9.994;2023-02-28T16:59:12;2.70;;;1.60;;
4377;SDS011;2203;53.686;9.994;2023-02-28T17:01:38;2.60;;;1.50;;
4377;SDS011;2203;53.686;9.994;2023-02-28T17:04:04;4.63;;;2.13;;
4377;SDS011;2203;53.686;9.994;2023-02-28T17:06:30;6.37;;;2.13;;
4377;SDS011;2203;53.686;9.994;2023-02-28T17:08:56;3.83;;;2.17;;
4377;SDS011;2203;53.686;9.994;2023-02-28T17:11:22;3.33;;;1.87;;
4377;SDS011;2203;53.686;9.994;2023-02-28T17:13:48;4.90;;;2.70;;
4377;SDS011;2203;53.686;9.994;2023-02-28T17:16:25;2.23;;;2.00;;
4377;SDS011;2203;53.686;9.994;2023-02-28T17:18:54;9.00;;;2.70;;
4377;SDS011;2203;53.686;9.994;2023-02-28T17:21:20;7.20;;;2.30;;
4377;SDS011;2203;53.686;9.994;2023-02-28T17:23:46;8.70;;;2.43;;
4377;SDS011;2203;53.686;9.994;2023-02-28T17:26:15;7.67;;;3.17;;
4377;SDS011;2203;53.686;9.994;2023-02-28T17:28:51;2.53;;;2.00;;
4377;SDS011;2203;53.686;9.994;2023-02-28T17:31:18;7.57;;;3.27;;
4377;SDS011;2203;53.686;9.994;2023-02-28T17:33:44;8.53;;;2.83;;
4377;SDS011;2203;53.686;9.994;2023-02-28T17:36:16;9.00;;;2.47;;
4377;SDS011;2203;53.686;9.994;2023-02-28T17:38:44;9.07;;;2.87;;
4377;SDS011;2203;53.686;9.994;2023-02-28T17:41:10;7.90;;;2.93;;
4377;SDS011;2203;53.686;9.994;2023-02-28T17:43:35;14.70;;;3.37;;
4377;SDS011;2203;53.686;9.994;2023-02-28T17:46:01;7.63;;;3.10;;
4377;SDS011;2203;53.686;9.994;2023-02-28T17:48:26;13.87;;;3.10;;
4377;SDS011;2203;53.686;9.994;2023-02-28T17:50:52;11.73;;;2.87;;
4377;SDS011;2203;53.686;9.994;2023-02-28T17:53:18;13.43;;;3.20;;
4377;SDS011;2203;53.686;9.994;2023-02-28T17:55:44;8.03;;;2.80;;
4377;SDS011;2203;53.686;9.994;2023-02-28T17:58:10;23.60;;;4.10;;
4377;SDS011;2203;53.686;9.994;2023-02-28T18:00:37;7.57;;;4.03;;
4377;SDS011;2203;53.686;9.994;2023-02-28T18:03:03;13.30;;;4.50;;
4377;SDS011;2203;53.686;9.994;2023-02-28T18:05:28;16.80;;;5.47;;
4377;SDS011;2203;53.686;9.994;2023-02-28T18:07:55;22.90;;;4.70;;